createdAt,value
2022-11-05T00:00:50.944Z,90.96
2022-11-05T00:03:36.143Z,90.89
2022-11-05T00:06:21.585Z,91.03
2022-11-05T00:09:23.502Z,91.42
2022-11-05T00:12:08.513Z,91.05
2022-11-05T00:14:53.622Z,91.20
2022-11-05T00:17:19.956Z,91.04
2022-11-05T00:19:46.301Z,91.25
2022-11-05T00:22:31.463Z,91.38
2022-11-05T00:25:16.368Z,91.58
2022-11-05T00:27:53.417Z,91.94
2022-11-05T00:30:22.917Z,92.03
2022-11-05T00:32:50.817Z,92.23
2022-11-05T00:35:22.585Z,92.10
2022-11-05T00:37:50.582Z,92.11
2022-11-05T00:40:17.395Z,92.20
2022-11-05T00:43:02.595Z,92.21
2022-11-05T00:45:30.803Z,92.43
2022-11-05T00:48:16.261Z,92.51
2022-11-05T00:50:42.820Z,92.39
2022-11-05T00:53:09.740Z,92.47
2022-11-05T00:55:38.160Z,92.53
2022-11-05T01:00:38.175Z,92.65
2022-11-05T01:03:07.987Z,92.79
2022-11-05T01:05:39.458Z,92.88
2022-11-05T01:08:05.916Z,92.96
2022-11-05T01:10:32.438Z,92.68
2022-11-05T01:12:59.178Z,92.43
2022-11-05T01:15:25.574Z,92.26
2022-11-05T01:17:52.533Z,92.37
2022-11-05T01:20:19.237Z,92.51
2022-11-05T01:22:45.662Z,92.60
2022-11-05T01:25:12.103Z,93.20
2022-11-05T01:27:38.538Z,93.19
2022-11-05T01:30:07.359Z,93.29
2022-11-05T01:32:35.451Z,93.28
2022-11-05T01:35:02.686Z,93.42
2022-11-05T01:37:29.033Z,93.54
2022-11-05T01:39:55.577Z,93.44
2022-11-05T01:42:24.175Z,93.56
2022-11-05T01:45:12.432Z,93.34
2022-11-05T01:47:44.797Z,93.45
2022-11-05T01:50:33.408Z,93.31
2022-11-05T01:53:09.834Z,93.51
2022-11-05T01:55:41.650Z,93.21
2022-11-05T01:58:11.603Z,92.87
2022-11-05T02:00:41.076Z,92.96
2022-11-05T02:03:07.663Z,93.08
2022-11-05T02:05:35.082Z,92.90
2022-11-05T02:08:02.550Z,92.52
2022-11-05T02:10:29.295Z,92.19
2022-11-05T02:12:55.726Z,92.13
2022-11-05T02:15:36.772Z,91.89
2022-11-05T02:18:24.876Z,91.89
2022-11-05T02:21:05.143Z,92.06
2022-11-05T02:23:34.344Z,92.01
2022-11-05T02:26:17.711Z,91.94
2022-11-05T02:28:59.115Z,92.22
2022-11-05T02:31:33.684Z,92.45
2022-11-05T02:34:04.917Z,92.53
2022-11-05T02:37:09.224Z,92.44
2022-11-05T02:40:13.402Z,92.05
2022-11-05T02:42:42.262Z,91.74
2022-11-05T02:45:33.019Z,91.67
2022-11-05T02:48:34.690Z,90.89
2022-11-05T02:51:23.843Z,90.68
2022-11-05T02:53:58.716Z,91.09
2022-11-05T02:56:32.604Z,91.28
2022-11-05T02:58:58.959Z,90.86
2022-11-05T03:01:25.575Z,90.81
2022-11-05T03:03:54.932Z,90.88
2022-11-05T03:06:24.228Z,91.14
2022-11-05T03:09:11.873Z,90.66
2022-11-05T03:11:46.939Z,90.53
2022-11-05T03:14:22.297Z,91.62
2022-11-05T03:17:01.495Z,92.10
2022-11-05T03:19:27.799Z,91.56
2022-11-05T03:22:05.419Z,92.09
2022-11-05T03:24:40.452Z,92.51
2022-11-05T03:27:11.279Z,92.51
2022-11-05T03:29:43.093Z,92.51
2022-11-05T03:32:12.416Z,92.40
2022-11-05T03:34:47.161Z,92.13
2022-11-05T03:37:17.813Z,91.75
2022-11-05T03:39:49.163Z,91.29
2022-11-05T03:42:18.303Z,90.96
2022-11-05T03:44:50.715Z,90.52
2022-11-05T03:47:22.621Z,90.02
2022-11-05T03:49:58.044Z,90.40
2022-11-05T03:52:29.982Z,91.37
2022-11-05T03:54:56.592Z,91.61
2022-11-05T03:57:27.699Z,91.98
2022-11-05T03:59:54.068Z,91.85
2022-11-05T04:02:23.188Z,91.74
2022-11-05T04:04:49.723Z,92.14
2022-11-05T04:07:34.640Z,92.41
2022-11-05T04:10:19.494Z,92.38
2022-11-05T04:13:04.787Z,92.01
2022-11-05T04:15:31.274Z,92.42
2022-11-05T04:17:58.942Z,92.52
2022-11-05T04:21:01.843Z,92.35
2022-11-05T04:23:46.821Z,92.81
2022-11-05T04:26:13.231Z,92.51
2022-11-05T04:29:00.503Z,92.82
2022-11-05T04:31:29.105Z,92.83
2022-11-05T04:33:55.731Z,92.77
2022-11-05T04:36:22.122Z,93.08
2022-11-05T04:38:48.521Z,93.18
2022-11-05T04:41:16.500Z,92.87
2022-11-05T04:43:44.469Z,93.12
2022-11-05T04:46:11.655Z,93.35
2022-11-05T04:48:38.151Z,93.23
2022-11-05T04:51:05.323Z,93.69
2022-11-05T04:53:31.988Z,93.77
2022-11-05T04:56:10.738Z,94.09
2022-11-05T04:58:41.713Z,94.10
2022-11-05T05:01:16.051Z,94.03
2022-11-05T05:03:42.856Z,93.78
2022-11-05T05:06:10.444Z,93.74
2022-11-05T05:08:36.960Z,93.91
2022-11-05T05:11:05.253Z,93.94
2022-11-05T05:13:31.759Z,93.73
2022-11-05T05:15:58.532Z,94.03
2022-11-05T05:18:29.010Z,93.92
2022-11-05T05:21:17.420Z,94.11
2022-11-05T05:23:44.350Z,94.03
2022-11-05T05:26:10.761Z,94.24
2022-11-05T05:28:37.124Z,94.18
2022-11-05T05:31:03.778Z,94.26
2022-11-05T05:33:30.214Z,94.04
2022-11-05T05:36:00.080Z,94.15
2022-11-05T05:38:26.461Z,94.09
2022-11-05T05:40:58.115Z,94.25
2022-11-05T05:43:25.045Z,94.24
2022-11-05T05:45:51.617Z,94.21
2022-11-05T05:48:17.983Z,94.02
2022-11-05T05:50:44.368Z,93.88
2022-11-05T05:53:10.995Z,93.91
2022-11-05T05:55:37.683Z,94.20
2022-11-05T05:58:05.368Z,94.18
2022-11-05T06:00:31.723Z,94.04
2022-11-05T06:02:58.105Z,94.18
2022-11-05T06:05:24.627Z,93.87
2022-11-05T06:07:58.084Z,94.13
2022-11-05T06:10:24.978Z,94.26
2022-11-05T06:12:51.548Z,94.13
2022-11-05T06:15:18.039Z,94.15
2022-11-05T06:17:44.981Z,94.32
2022-11-05T06:20:12.937Z,94.42
2022-11-05T06:22:39.703Z,94.49
2022-11-05T06:25:07.154Z,94.43
2022-11-05T06:27:33.791Z,94.45
2022-11-05T06:30:00.763Z,94.54
2022-11-05T06:32:27.200Z,94.58
2022-11-05T06:44:35.600Z,94.50
2022-11-05T06:47:01.987Z,94.59
2022-11-05T06:49:28.491Z,94.69
2022-11-05T06:51:55.020Z,94.64
2022-11-05T06:54:21.473Z,94.66
2022-11-05T06:56:48.069Z,94.22
2022-11-05T06:59:14.759Z,94.50
2022-11-05T07:01:41.563Z,94.59
2022-11-05T07:04:08.314Z,94.62
2022-11-05T07:06:37.087Z,94.67
2022-11-05T07:09:04.562Z,94.50
2022-11-05T07:11:31.032Z,94.26
2022-11-05T07:13:57.408Z,94.24
2022-11-05T07:16:23.931Z,94.26
2022-11-05T07:18:51.749Z,94.29
2022-11-05T07:21:19.731Z,93.90
2022-11-05T07:23:46.191Z,93.72
2022-11-05T07:26:12.647Z,93.70
2022-11-05T07:28:39.114Z,93.54
2022-11-05T07:32:42.000Z,93.15
2022-11-05T07:35:09.341Z,92.23
2022-11-05T07:37:46.584Z,92.24
2022-11-05T07:40:14.449Z,91.47
2022-11-05T07:42:45.520Z,90.02
2022-11-05T07:45:12.711Z,89.39
2022-11-05T07:47:45.844Z,88.31
2022-11-05T07:50:12.346Z,86.78
2022-11-05T07:52:38.745Z,84.97
2022-11-05T07:55:06.005Z,84.30
2022-11-05T07:57:32.318Z,84.32
2022-11-05T07:59:58.747Z,86.02
2022-11-05T08:02:25.387Z,86.62
2022-11-05T08:04:51.867Z,85.97
2022-11-05T08:07:18.218Z,84.23
2022-11-05T08:09:44.769Z,83.51
2022-11-05T08:12:11.215Z,82.06
2022-11-05T08:14:37.584Z,80.44
2022-11-05T08:17:04.049Z,80.36
2022-11-05T08:19:30.579Z,81.77
2022-11-05T08:21:56.956Z,82.17
2022-11-05T08:24:23.275Z,81.27
2022-11-05T08:26:49.622Z,81.94
2022-11-05T08:29:16.260Z,83.23
2022-11-05T08:31:42.634Z,81.85
2022-11-05T08:34:08.989Z,80.79
2022-11-05T08:36:35.830Z,80.90
2022-11-05T08:39:02.214Z,82.14
2022-11-05T08:41:28.605Z,81.41
2022-11-05T08:43:56.217Z,79.79
2022-11-05T08:46:22.801Z,78.45
2022-11-05T08:48:49.899Z,75.22
2022-11-05T08:51:16.252Z,75.42
2022-11-05T08:53:42.585Z,75.26
2022-11-05T08:56:09.005Z,73.66
2022-11-05T08:58:35.403Z,74.12
2022-11-05T09:01:05.396Z,72.40
2022-11-05T09:03:32.143Z,72.77
2022-11-05T09:05:58.605Z,72.05
2022-11-05T09:08:24.991Z,74.63
2022-11-05T09:10:51.422Z,73.47
2022-11-05T09:13:19.907Z,73.83
2022-11-05T09:15:48.622Z,71.11
2022-11-05T09:18:15.901Z,72.07
2022-11-05T09:20:42.687Z,70.10
2022-11-05T09:23:10.388Z,70.77
2022-11-05T09:25:37.440Z,68.74
2022-11-05T09:28:20.075Z,71.22
2022-11-05T09:30:49.403Z,73.77
2022-11-05T09:33:18.476Z,75.24
2022-11-05T09:35:45.605Z,73.44
2022-11-05T09:38:12.444Z,69.33
2022-11-05T09:40:47.054Z,68.40
2022-11-05T09:43:20.332Z,67.07
2022-11-05T09:45:51.250Z,70.16
2022-11-05T09:48:20.584Z,69.97
2022-11-05T09:50:47.973Z,68.90
2022-11-05T09:53:17.594Z,68.80
2022-11-05T09:55:56.803Z,68.27
2022-11-05T09:58:40.970Z,70.48
2022-11-05T10:01:14.608Z,68.19
2022-11-05T10:03:48.546Z,67.11
2022-11-05T10:06:21.591Z,66.24
2022-11-05T10:08:56.629Z,67.73
2022-11-05T10:11:33.903Z,64.11
2022-11-05T10:14:18.438Z,60.60
2022-11-05T10:17:00.061Z,65.43
2022-11-05T10:19:43.301Z,64.36
2022-11-05T10:22:13.646Z,64.30
2022-11-05T10:24:43.387Z,63.82
2022-11-05T10:27:35.349Z,64.21
2022-11-05T10:30:01.945Z,60.14
2022-11-05T10:32:33.006Z,59.69
2022-11-05T10:35:02.661Z,61.40
2022-11-05T10:37:30.665Z,59.00
2022-11-05T10:39:57.670Z,59.41
2022-11-05T10:42:48.892Z,62.29
2022-11-05T10:46:04.606Z,62.87
2022-11-05T10:49:00.466Z,59.90
2022-11-05T10:51:27.474Z,57.72
2022-11-05T10:54:01.947Z,60.11
2022-11-05T10:56:36.350Z,60.73
2022-11-05T10:59:10.924Z,61.48
2022-11-05T11:01:38.893Z,63.60
2022-11-05T11:04:10.320Z,58.93
2022-11-05T11:06:39.591Z,56.28
2022-11-05T11:09:26.327Z,61.47
2022-11-05T11:12:02.835Z,63.47
2022-11-05T11:14:29.970Z,63.77
2022-11-05T11:17:16.966Z,63.66
2022-11-05T11:19:43.611Z,60.96
2022-11-05T11:22:17.719Z,60.57
2022-11-05T11:24:48.035Z,62.30
2022-11-05T11:27:30.180Z,60.48
2022-11-05T11:30:00.174Z,55.59
2022-11-05T11:32:33.133Z,56.57
2022-11-05T11:35:01.053Z,60.33
2022-11-05T11:37:30.181Z,61.12
2022-11-05T11:40:16.152Z,59.94
2022-11-05T11:42:47.201Z,60.05
2022-11-05T11:45:27.332Z,60.12
2022-11-05T11:47:56.746Z,59.35
2022-11-05T11:50:33.356Z,61.27
2022-11-05T11:53:28.063Z,62.19
2022-11-05T11:56:21.051Z,63.08
2022-11-05T11:58:53.278Z,62.98
2022-11-05T12:01:29.980Z,62.78
2022-11-05T12:04:24.922Z,62.81
2022-11-05T12:06:56.291Z,64.89
2022-11-05T12:09:41.335Z,63.50
2022-11-05T12:12:14.811Z,63.11
2022-11-05T12:14:58.130Z,64.19
2022-11-05T12:17:43.294Z,64.62
2022-11-05T12:20:27.482Z,65.13
2022-11-05T12:23:15.699Z,62.93
2022-11-05T12:25:51.207Z,63.25
2022-11-05T12:29:12.288Z,64.52
2022-11-05T12:31:42.982Z,64.29
2022-11-05T12:34:43.741Z,65.43
2022-11-05T12:37:10.119Z,65.69
2022-11-05T12:40:02.886Z,65.86
2022-11-05T12:42:43.796Z,65.96
2022-11-05T12:45:29.613Z,66.50
2022-11-05T12:48:24.660Z,66.36
2022-11-05T12:51:20.257Z,66.67
2022-11-05T12:54:04.802Z,65.69
2022-11-05T12:56:44.133Z,66.58
2022-11-05T12:59:28.349Z,66.64
2022-11-05T13:02:08.249Z,66.55
2022-11-05T13:04:43.781Z,66.65
2022-11-05T13:07:16.520Z,66.73
2022-11-05T13:09:50.809Z,66.65
2022-11-05T13:12:20.331Z,66.81
2022-11-05T13:15:26.146Z,66.58
2022-11-05T13:18:03.692Z,66.74
2022-11-05T13:20:34.029Z,66.92
2022-11-05T13:23:20.181Z,66.48
2022-11-05T13:25:53.289Z,66.58
2022-11-05T13:28:35.263Z,66.65
2022-11-05T13:31:05.714Z,66.14
2022-11-05T13:33:36.505Z,66.43
2022-11-05T13:36:31.682Z,66.49
2022-11-05T13:39:07.132Z,66.64
2022-11-05T13:42:23.563Z,65.44
2022-11-05T13:45:26.135Z,65.85
2022-11-05T13:47:59.753Z,66.48
2022-11-05T13:50:33.345Z,66.54
2022-11-05T13:53:18.420Z,66.56
2022-11-05T13:56:09.928Z,66.86
2022-11-05T13:58:51.290Z,67.33
2022-11-05T14:01:54.105Z,67.22
2022-11-05T14:04:26.542Z,67.61
2022-11-05T14:06:54.568Z,67.46
2022-11-05T14:09:27.100Z,67.56
2022-11-05T14:11:58.149Z,67.59
2022-11-05T14:14:29.251Z,67.70
2022-11-05T14:17:07.588Z,66.94
2022-11-05T14:20:04.861Z,66.98
2022-11-05T14:22:31.235Z,66.05
2022-11-05T14:25:01.434Z,64.29
2022-11-05T14:27:36.667Z,64.59
2022-11-05T14:30:42.947Z,64.69
2022-11-05T14:33:39.099Z,64.51
2022-11-05T14:36:20.943Z,64.31
2022-11-05T14:38:50.569Z,64.60
2022-11-05T14:41:18.073Z,63.76
2022-11-05T14:43:50.260Z,64.20
2022-11-05T14:46:16.916Z,64.62
2022-11-05T14:48:49.886Z,64.27
2022-11-05T14:51:32.354Z,64.33
2022-11-05T14:54:05.942Z,64.82
2022-11-05T14:57:02.521Z,64.93
2022-11-05T14:59:28.905Z,64.75
2022-11-05T15:02:00.734Z,65.18
2022-11-05T15:04:30.537Z,64.87
2022-11-05T15:07:03.074Z,64.76
2022-11-05T15:09:36.312Z,65.23
2022-11-05T15:12:23.996Z,65.61
2022-11-05T15:14:58.092Z,65.96
2022-11-05T15:17:34.527Z,66.40
2022-11-05T15:20:10.602Z,66.17
2022-11-05T15:22:43.461Z,65.59
2022-11-05T15:25:54.782Z,65.88
2022-11-05T15:28:41.358Z,65.64
2022-11-05T15:31:14.014Z,65.69
2022-11-05T15:33:42.499Z,65.36
2022-11-05T15:36:27.878Z,65.20
2022-11-05T15:39:28.040Z,65.46
2022-11-05T15:41:42.878Z,65.65
2022-11-05T15:44:25.358Z,65.89
2022-11-05T15:47:30.070Z,66.39
2022-11-05T15:50:01.866Z,66.67
2022-11-05T15:52:36.503Z,66.80
2022-11-05T15:55:07.579Z,66.83
2022-11-05T15:57:39.314Z,67.28
2022-11-05T16:00:14.856Z,67.39
2022-11-05T16:02:41.791Z,67.61
2022-11-05T16:05:13.287Z,67.85
2022-11-05T16:07:48.063Z,67.86
2022-11-05T16:10:28.561Z,67.83
2022-11-05T16:12:55.236Z,67.90
2022-11-05T16:15:25.152Z,67.86
2022-11-05T16:17:57.683Z,68.04
2022-11-05T16:20:32.178Z,68.21
2022-11-05T16:23:02.189Z,68.58
2022-11-05T16:25:42.389Z,68.92
2022-11-05T16:28:25.649Z,69.13
2022-11-05T16:30:59.947Z,69.67
2022-11-05T16:33:32.314Z,70.11
2022-11-05T16:35:58.759Z,70.35
2022-11-05T16:38:25.227Z,70.53
2022-11-05T16:40:51.659Z,70.74
2022-11-05T16:43:25.523Z,71.04
2022-11-05T16:45:58.723Z,71.21
2022-11-05T16:48:26.123Z,71.19
2022-11-05T16:50:53.019Z,71.22
2022-11-05T16:53:19.706Z,71.36
2022-11-05T16:55:46.589Z,70.37
2022-11-05T16:58:25.515Z,70.35
2022-11-05T17:00:55.836Z,69.84
2022-11-05T17:03:22.355Z,69.90
2022-11-05T17:05:48.819Z,70.18
2022-11-05T17:08:15.610Z,69.67
2022-11-05T17:10:42.107Z,70.10
2022-11-05T17:13:13.119Z,69.69
2022-11-05T17:15:39.602Z,69.88
2022-11-05T17:18:06.215Z,69.99
2022-11-05T17:20:40.693Z,69.99
2022-11-05T17:23:13.246Z,70.17
2022-11-05T17:25:41.822Z,70.37
2022-11-05T17:28:09.158Z,70.61
2022-11-05T17:30:36.810Z,70.88
2022-11-05T17:33:03.375Z,71.06
2022-11-05T17:35:30.101Z,71.44
2022-11-05T17:37:56.947Z,71.67
2022-11-05T17:40:24.224Z,72.16
2022-11-05T17:42:51.732Z,72.31
2022-11-05T17:45:18.498Z,72.62
2022-11-05T17:47:45.431Z,73.04
2022-11-05T17:50:13.638Z,73.45
2022-11-05T17:52:40.386Z,73.78
2022-11-05T17:55:16.518Z,74.12
2022-11-05T17:57:48.102Z,74.19
2022-11-05T18:00:17.430Z,74.62
2022-11-05T18:02:44.439Z,74.65
2022-11-05T18:05:12.172Z,74.78
2022-11-05T18:07:38.539Z,74.83
2022-11-05T18:10:05.844Z,74.81
2022-11-05T18:12:32.409Z,75.14
2022-11-05T18:14:58.880Z,74.98
2022-11-05T18:17:25.404Z,75.28
2022-11-05T18:19:53.988Z,75.55
2022-11-05T18:22:20.385Z,75.50
2022-11-05T18:24:46.850Z,75.57
2022-11-05T18:27:13.367Z,75.81
2022-11-05T18:29:39.785Z,75.81
2022-11-05T18:32:06.254Z,76.14
2022-11-05T18:34:32.924Z,76.17
2022-11-05T18:36:59.393Z,76.33
2022-11-05T18:39:25.748Z,76.35
2022-11-05T18:41:52.123Z,76.50
2022-11-05T18:44:22.605Z,76.67
2022-11-05T18:46:57.965Z,76.66
2022-11-05T18:49:25.098Z,76.80
2022-11-05T18:51:51.613Z,76.90
2022-11-05T18:57:36.025Z,77.28
2022-11-05T19:00:04.720Z,77.08
2022-11-05T19:02:31.183Z,77.12
2022-11-05T19:05:27.470Z,77.03
2022-11-05T19:07:44.152Z,77.26
2022-11-05T19:10:10.601Z,77.24
2022-11-05T19:12:39.516Z,77.37
2022-11-05T19:15:06.967Z,77.21
2022-11-05T19:17:39.135Z,77.29
2022-11-05T19:20:06.968Z,77.42
2022-11-05T19:22:33.343Z,77.39
2022-11-05T19:24:59.673Z,77.45
2022-11-05T19:27:26.028Z,77.63
2022-11-05T19:29:52.629Z,77.72
2022-11-05T19:32:19.278Z,77.77
2022-11-05T19:34:46.314Z,77.99
2022-11-05T19:37:12.832Z,78.00
2022-11-05T19:39:40.395Z,78.19
2022-11-05T19:42:07.056Z,78.30
2022-11-05T19:44:33.508Z,78.13
2022-11-05T19:46:59.968Z,78.03
2022-11-05T19:49:28.143Z,78.08
2022-11-05T19:51:54.567Z,78.23
2022-11-05T19:54:21.046Z,78.61
2022-11-05T19:56:49.722Z,78.52
2022-11-05T19:59:16.124Z,78.65
2022-11-05T20:01:42.591Z,78.60
2022-11-05T20:04:09.523Z,78.79
2022-11-05T20:06:38.993Z,78.91
2022-11-05T20:09:21.611Z,79.21
2022-11-05T20:11:50.598Z,79.43
2022-11-05T20:14:17.143Z,79.55
2022-11-05T20:16:45.549Z,79.59
2022-11-05T20:19:14.827Z,79.66
2022-11-05T20:21:41.442Z,79.95
2022-11-05T20:24:08.346Z,80.08
2022-11-05T20:26:35.284Z,80.33
2022-11-05T20:29:01.847Z,80.28
2022-11-05T20:31:28.615Z,80.44
2022-11-05T20:33:55.039Z,80.50
2022-11-05T20:36:24.047Z,80.51
2022-11-05T20:38:56.462Z,80.63
2022-11-05T20:41:23.404Z,80.90
2022-11-05T20:43:50.890Z,80.90
2022-11-05T20:46:19.971Z,81.22
2022-11-05T20:48:46.685Z,81.07
2022-11-05T20:51:16.103Z,81.10
2022-11-05T20:53:44.013Z,81.47
2022-11-05T20:56:19.173Z,81.58
2022-11-05T20:58:45.997Z,81.75
2022-11-05T21:01:13.425Z,81.86
2022-11-05T21:03:39.990Z,81.88
2022-11-05T21:06:06.650Z,81.93
2022-11-05T21:08:34.091Z,82.09
2022-11-05T21:11:01.157Z,82.36
2022-11-05T21:13:28.213Z,82.63
2022-11-05T21:15:57.866Z,82.80
2022-11-05T21:18:29.476Z,82.79
2022-11-05T21:20:56.933Z,83.04
2022-11-05T21:23:23.720Z,82.78
2022-11-05T21:25:50.387Z,82.82
2022-11-05T21:28:17.252Z,82.60
2022-11-05T21:30:46.141Z,82.38
2022-11-05T21:33:14.150Z,82.36
2022-11-05T21:35:46.621Z,82.52
2022-11-05T21:38:15.477Z,82.45
2022-11-05T21:40:45.243Z,82.44
2022-11-05T21:43:13.070Z,82.45
2022-11-05T21:45:41.203Z,82.53
2022-11-05T21:48:08.899Z,82.88
2022-11-05T21:50:57.809Z,82.85
2022-11-05T21:53:42.872Z,83.17
2022-11-05T21:56:46.997Z,83.15
2022-11-05T21:59:40.508Z,83.31
2022-11-05T22:02:08.519Z,83.51
2022-11-05T22:04:37.511Z,83.72
2022-11-05T22:07:04.944Z,83.64
2022-11-05T22:09:31.878Z,83.65
2022-11-05T22:11:59.366Z,83.68
2022-11-05T22:14:26.172Z,83.39
2022-11-05T22:16:52.716Z,83.63
2022-11-05T22:19:20.219Z,83.91
2022-11-05T22:21:46.652Z,83.98
2022-11-05T22:24:13.755Z,83.87
2022-11-05T22:26:41.227Z,84.07
2022-11-05T22:29:07.928Z,84.10
2022-11-05T22:31:36.447Z,84.29
2022-11-05T22:34:04.455Z,84.75
2022-11-05T22:36:31.989Z,84.79
2022-11-05T22:38:58.718Z,84.96
2022-11-05T22:41:25.434Z,84.84
2022-11-05T22:43:52.019Z,85.18
2022-11-05T22:46:21.737Z,85.30
2022-11-05T22:48:49.255Z,85.29
2022-11-05T22:51:21.455Z,85.56
2022-11-05T22:53:48.367Z,85.56
2022-11-05T22:56:18.183Z,85.60
2022-11-05T22:58:44.847Z,85.85
2022-11-05T23:01:12.437Z,86.14
2022-11-05T23:03:40.682Z,86.14
2022-11-05T23:06:36.490Z,86.21
2022-11-05T23:09:24.951Z,85.88
2022-11-05T23:11:53.504Z,85.90
2022-11-05T23:14:20.223Z,86.11
2022-11-05T23:17:05.353Z,85.96
2022-11-05T23:19:50.306Z,86.22
2022-11-05T23:22:40.725Z,86.05
2022-11-05T23:25:09.929Z,86.23
2022-11-05T23:27:38.303Z,86.26
2022-11-05T23:30:09.478Z,86.30
2022-11-05T23:32:38.301Z,86.41
2022-11-05T23:35:05.227Z,86.62
2022-11-05T23:37:50.292Z,86.63
2022-11-05T23:40:19.714Z,86.69
2022-11-05T23:43:05.047Z,86.73
2022-11-05T23:45:51.037Z,86.93
2022-11-05T23:48:37.351Z,86.64
2022-11-05T23:51:09.194Z,86.58
2022-11-05T23:53:39.879Z,86.84
2022-11-05T23:56:12.901Z,86.79
2022-11-05T23:58:41.037Z,87.02
